Latest Coastal Weather Observations for Hillarys Point Boat Harbour

IDW60701

Issued at 2:52 pm WST Wednesday 29 July 2015 (issued every 10 minutes, with the page automatically refreshed every 10 minutes)

About coastal observations | Map of coastal stations | Coastal observations for WA | Marine services | Other Formats
Station Details ID: 009265 Name: HILLARYS BOAT HARBOUR NTC AWS Lat: -31.83 Lon: 115.74 Height: 0.0 m
Data from the previous 72 hours. | See also: Recent months for locations in Western Australia
Date/Time
WST
Temp

°C
Wind Pressure Rain
since 9am
mm
Weather Cloud Vis
km
Sea
Height
m
Swell
Dir
 
Speed
knots
Gust
knots
hPa Trend Height
m
Period
s
Dir
29/02:30pm 18.8 N 6 9 1017.1 - - - - - - - - -
29/02:00pm 18.5 N 6 10 1017.0 - - - - - - - - -
29/01:30pm 18.4 N 5 9 1017.3 - - - - - - - - -
29/01:00pm 18.0 NNW 3 5 1017.5 - - - - - - - - -
29/12:30pm 17.9 NNW 5 7 1018.0 - - - - - - - - -
29/12:00pm 18.2 NNW 4 7 1018.2 - - - - - - - - -
29/11:30am 18.3 N 5 8 1018.4 - - - - - - - - -
29/11:00am 18.5 N 5 8 1018.4 - - - - - - - - -
29/10:30am 18.2 N 4 7 1018.2 - - - - - - - - -
29/10:00am 17.6 NNE 5 7 1018.1 - - - - - - - - -
29/09:30am 17.0 N 4 8 1018.0 - - - - - - - - -
29/09:00am 16.1 NNE 4 6 1017.9 - - - - - - - - -
29/08:30am 15.5 NNE 5 7 1017.8 - - - - - - - - -
29/08:00am 15.3 NNE 5 8 1017.6 - - - - - - - - -
29/07:30am 15.0 NNE 4 8 1017.6 - - - - - - - - -
29/07:00am 14.8 NNE 6 9 1017.6 - - - - - - - - -
29/06:30am 14.2 NNE 4 6 1017.5 - - - - - - - - -
29/06:00am 14.2 NNE 5 7 1017.1 - - - - - - - - -
29/05:30am 14.0 NNE 6 11 1016.8 - - - - - - - - -
29/05:00am 13.7 NNE 5 9 1016.8 - - - - - - - - -
29/04:30am 13.5 NNE 7 10 1016.5 - - - - - - - - -
29/04:00am 13.5 NE 5 9 1016.6 - - - - - - - - -
29/03:30am 13.6 NE 5 8 1016.8 - - - - - - - - -
29/03:00am 13.4 NE 4 8 1016.5 - - - - - - - - -
29/02:30am 13.0 NE 4 6 1016.8 - - - - - - - - -
29/02:00am 12.5 NE 4 6 1016.8 - - - - - - - - -
29/01:30am 12.3 NE 3 5 1016.7 - - - - - - - - -
29/01:00am 12.1 ENE 4 6 1016.5 - - - - - - - - -
29/12:30am 12.5 NE 3 4 1016.7 - - - - - - - - -
29/12:00am 12.7 NE 3 4 1016.5 - - - - - - - - -
 
Date/Time
WST
Temp

°C
Wind Pressure Rain
since 9am
mm
Weather Cloud Vis
km
Sea
Height
m
Swell
Dir
 
Speed
knots
Gust
knots
hPa Trend Height
m
Period
s
Dir
28/11:30pm 12.8 NE 3 5 1016.7 - - - - - - - - -
28/11:00pm 12.9 NE 3 5 1017.0 - - - - - - - - -
28/10:30pm 13.0 NE 3 5 1016.8 - - - - - - - - -
28/10:00pm 13.4 NE 3 6 1016.5 - - - - - - - - -
28/09:30pm 13.3 ENE 3 6 1016.3 - - - - - - - - -
28/09:00pm 13.6 E 2 3 1016.0 - - - - - - - - -
28/08:30pm 14.3 ESE 2 4 1016.0 - - - - - - - - -
28/08:00pm 14.3 S 2 4 1016.1 - - - - - - - - -
28/07:30pm 13.9 SSE 1 3 1015.6 - - - - - - - - -
28/07:00pm 13.9 ESE 1 5 1015.2 - - - - - - - - -
28/06:30pm 13.8 S 1 3 1014.9 - - - - - - - - -
28/06:00pm 13.8 ENE 6 10 1014.3 - - - - - - - - -
28/05:30pm 14.3 ENE 7 12 1014.0 - - - - - - - - -
28/05:00pm 14.6 ENE 8 18 1013.9 - - - - - - - - -
28/04:30pm 14.5 NE 8 14 1013.6 - - - - - - - - -
28/04:00pm 14.7 NE 7 14 1013.8 - - - - - - - - -
28/03:30pm 14.9 NE 7 15 1013.7 - - - - - - - - -
28/03:00pm 14.5 NNE 7 12 1014.1 - - - - - - - - -
28/02:30pm 14.1 NE 8 14 1013.8 - - - - - - - - -
28/02:00pm 13.8 NE 9 17 1014.0 - - - - - - - - -
28/01:30pm 13.9 NNE 10 17 1014.0 - - - - - - - - -
28/01:00pm 14.0 NNE 12 21 1014.9 - - - - - - - - -
28/12:30pm 14.0 NNE 11 20 1014.7 - - - - - - - - -
28/12:00pm 13.7 NNE 11 17 1016.3 - - - - - - - - -
28/11:30am 13.2 NNE 11 22 1016.6 - - - - - - - - -
28/11:00am 12.9 NNE 14 23 1016.2 - - - - - - - - -
28/10:30am 12.9 NNE 11 19 1017.6 - - - - - - - - -
28/10:00am 13.0 NNE 6 12 1018.2 - - - - - - - - -
28/09:30am 12.4 NNE 6 12 1018.9 - - - - - - - - -
28/09:00am 11.9 NNE 5 9 1019.0 - - - - - - - - -
28/08:30am 12.1 NE 7 15 1019.1 - - - - - - - - -
28/08:00am 12.5 NNE 7 12 1019.0 - - - - - - - - -
28/07:30am 12.9 NE 7 12 1018.5 - - - - - - - - -
28/07:00am 13.3 NNE 6 9 1019.3 - - - - - - - - -
28/06:30am 13.5 NNE 5 10 1018.9 - - - - - - - - -
28/06:00am 14.2 NNE 4 7 1019.7 - - - - - - - - -
28/05:30am 14.6 ENE 5 9 1019.4 - - - - - - - - -
28/05:00am 15.0 ENE 6 8 1019.1 - - - - - - - - -
28/04:30am 15.6 NNE 5 9 1019.8 - - - - - - - - -
28/04:00am 15.8 NNE 6 12 1020.1 - - - - - - - - -
28/03:30am 16.5 NNE 7 10 1021.1 - - - - - - - - -
28/03:00am 16.7 NNE 7 13 1021.2 - - - - - - - - -
28/02:30am 15.9 NE 6 11 1021.4 - - - - - - - - -
28/02:00am 16.1 ENE 7 11 1021.7 - - - - - - - - -
28/01:30am 16.0 ENE 8 13 1021.3 - - - - - - - - -
28/01:00am 15.8 ENE 8 13 1021.2 - - - - - - - - -
28/12:30am 15.8 ENE 6 11 1022.3 - - - - - - - - -
28/12:00am 15.8 ENE 7 12 1022.0 - - - - - - - - -
 
Date/Time
WST
Temp

°C
Wind Pressure Rain
since 9am
mm
Weather Cloud Vis
km
Sea
Height
m
Swell
Dir
 
Speed
knots
Gust
knots
hPa Trend Height
m
Period
s
Dir
27/11:30pm 15.8 ENE 7 11 1022.4 - - - - - - - - -
27/11:00pm 15.6 ENE 7 11 1022.7 - - - - - - - - -
27/10:30pm 15.7 ENE 6 8 1023.4 - - - - - - - - -
27/10:00pm 15.4 ENE 4 6 1023.4 - - - - - - - - -
27/09:30pm 15.8 ENE 4 6 1023.6 - - - - - - - - -
27/09:00pm 15.7 ENE 4 5 1023.3 - - - - - - - - -
27/08:30pm 15.7 ENE 5 7 1023.1 - - - - - - - - -
27/08:00pm 16.6 ENE 4 6 1023.7 - - - - - - - - -
27/07:30pm 16.3 ENE 4 5 1024.0 - - - - - - - - -
27/07:00pm 16.6 ENE 3 4 1024.4 - - - - - - - - -
27/06:30pm 17.5 ENE 3 5 1024.1 - - - - - - - - -
27/06:00pm 18.0 ESE 1 2 1024.3 - - - - - - - - -
27/05:30pm 18.7 E 2 3 1024.1 - - - - - - - - -
27/05:00pm 19.5 ENE 3 5 1023.9 - - - - - - - - -
27/04:30pm 19.8 ENE 5 11 1023.8 - - - - - - - - -
27/04:00pm 20.1 NE 5 10 1023.9 - - - - - - - - -
27/03:30pm 20.0 NE 6 11 1023.5 - - - - - - - - -
27/03:00pm 20.0 NNE 7 13 1023.7 - - - - - - - - -
27/02:30pm 19.9 NNE 7 12 1023.8 - - - - - - - - -
27/02:00pm 19.9 NNE 8 12 1024.4 - - - - - - - - -
27/01:30pm 19.8 NE 8 15 1024.8 - - - - - - - - -
27/01:00pm 19.3 NNE 8 15 1025.5 - - - - - - - - -
27/12:30pm 18.4 NNE 10 19 1026.3 - - - - - - - - -
27/12:00pm 18.1 NNE 7 15 1026.9 - - - - - - - - -
27/11:30am 16.5 NE 8 14 1027.5 - - - - - - - - -
27/11:00am 15.6 NE 9 17 1028.3 - - - - - - - - -
27/10:30am 15.0 NE 10 19 1028.1 - - - - - - - - -
27/10:00am 13.9 ENE 10 17 1028.5 - - - - - - - - -
27/09:30am 12.8 ENE 10 16 1028.5 - - - - - - - - -
27/09:00am 11.9 ENE 9 14 1028.8 - - - - - - - - -
27/08:30am 11.3 ENE 8 13 1029.0 - - - - - - - - -
27/08:00am 10.7 ENE 8 13 1029.2 - - - - - - - - -
27/07:30am 10.3 ENE 6 9 1029.1 - - - - - - - - -
27/07:00am 10.3 ENE 8 11 1028.7 - - - - - - - - -
27/06:30am 10.5 ENE 8 12 1028.5 - - - - - - - - -
27/06:00am 10.7 ENE 8 12 1028.3 - - - - - - - - -
27/05:30am 10.8 ENE 9 14 1028.3 - - - - - - - - -
27/05:00am 10.4 ENE 6 9 1028.4 - - - - - - - - -
27/04:30am 10.4 ENE 7 11 1028.2 - - - - - - - - -
27/04:00am 10.4 ENE 6 10 1028.9 - - - - - - - - -
27/03:30am 10.4 ENE 6 9 1029.2 - - - - - - - - -
27/03:00am 11.0 ENE 7 11 1028.9 - - - - - - - - -
27/02:30am 11.1 ENE 8 12 1029.0 - - - - - - - - -
27/02:00am 11.0 ENE 6 9 1029.5 - - - - - - - - -
27/01:30am 10.5 ENE 6 8 1029.3 - - - - - - - - -
27/01:00am 10.7 ENE 6 9 1029.8 - - - - - - - - -
27/12:30am 11.2 ENE 5 7 1030.1 - - - - - - - - -
27/12:00am 11.6 ENE 6 10 1030.3 - - - - - - - - -
 
Date/Time
WST
Temp

°C
Wind Pressure Rain
since 9am
mm
Weather Cloud Vis
km
Sea
Height
m
Swell
Dir
 
Speed
knots
Gust
knots
hPa Trend Height
m
Period
s
Dir
26/11:30pm 11.5 ENE 5 8 1030.4 - - - - - - - - -
26/11:00pm 11.8 ENE 4 8 1030.6 - - - - - - - - -
26/10:30pm 12.3 E 4 8 1030.7 - - - - - - - - -
26/10:00pm 12.2 E 4 6 1030.8 - - - - - - - - -
26/09:30pm 12.9 ENE 4 6 1031.0 - - - - - - - - -
26/09:00pm 13.3 E 3 5 1030.8 - - - - - - - - -
26/08:30pm 13.5 E 2 4 1030.7 - - - - - - - - -
26/08:00pm 13.7 E 2 4 1030.6 - - - - - - - - -
26/07:30pm 14.1 E 1 3 1030.4 - - - - - - - - -
26/07:00pm 14.3 CALM 0 2 1030.2 - - - - - - - - -
26/06:30pm 14.5 CALM 0 1 1030.0 - - - - - - - - -
26/06:00pm 15.4 CALM 0 1 1029.6 - - - - - - - - -
26/05:30pm 16.1 E 3 6 1029.1 - - - - - - - - -
26/05:00pm 16.8 ENE 5 8 1028.9 - - - - - - - - -
26/04:30pm 17.2 ENE 4 9 1028.7 - - - - - - - - -
26/04:00pm 17.5 ENE 4 7 1028.7 - - - - - - - - -
26/03:30pm 17.3 E 4 9 1028.8 - - - - - - - - -
26/03:00pm 17.2 E 4 7 1029.2 - - - - - - - - -

Other Formats:

Comma delimited format used in spreadsheet applications
http://www.bom.gov.au/fwo/IDW60701/IDW60701.95605.axf

JavaScript Object Notation format (JSON) in row-major order
http://www.bom.gov.au/fwo/IDW60701/IDW60701.95605.json